Coeymans, New York
Current Conditions -  °F | °C
As of 2:51 PM on Monday 22 Dec 2014 (Local Time) from KALB Reporting Station
Broken Clouds Broken Clouds  
Wind Chill: 35°   Ceiling: 4500
Heat Index: 35°   Visibility: 10mi
Dew Point: 27°   Wind: 3mph
Humidity: 72%   Direction: 50°NE
Pressure: 30.26"   Gusts: NA
Location:  42.47°N, 73.79°W
Report Text: KALB 221951Z 05003KT 10SM FEW033 BKN045 BKN200 02/M03 A3026 RMK AO2 SNE18 SLP251 BKN V SCT P0000 T00171028
Loading
Personal Weather Stations






























Interactive Weather Map New forecast layout! Learn more

10-Day Weather Forecast

Advertisements
Track Severe Weather on mobile